sensor_id;sensor_type;location;lat;lon;timestamp;P1;durP1;ratioP1;P2;durP2;ratioP2
5696;SDS011;2873;50.966;7.210;2023-02-17T00:00:53;24.70;;;14.15;;
5696;SDS011;2873;50.966;7.210;2023-02-17T00:03:19;19.27;;;13.87;;
5696;SDS011;2873;50.966;7.210;2023-02-17T00:05:44;19.92;;;14.02;;
5696;SDS011;2873;50.966;7.210;2023-02-17T00:08:10;23.00;;;14.43;;
5696;SDS011;2873;50.966;7.210;2023-02-17T00:10:35;20.80;;;13.70;;
5696;SDS011;2873;50.966;7.210;2023-02-17T00:13:01;19.63;;;13.13;;
5696;SDS011;2873;50.966;7.210;2023-02-17T00:15:27;22.77;;;13.98;;
5696;SDS011;2873;50.966;7.210;2023-02-17T00:17:52;21.53;;;14.67;;
5696;SDS011;2873;50.966;7.210;2023-02-17T00:20:18;20.33;;;13.60;;
5696;SDS011;2873;50.966;7.210;2023-02-17T00:22:44;17.55;;;12.65;;
5696;SDS011;2873;50.966;7.210;2023-02-17T00:25:09;25.17;;;14.43;;
5696;SDS011;2873;50.966;7.210;2023-02-17T00:27:35;18.77;;;13.65;;
5696;SDS011;2873;50.966;7.210;2023-02-17T00:30:00;18.57;;;13.37;;
5696;SDS011;2873;50.966;7.210;2023-02-17T00:32:26;18.67;;;13.20;;
5696;SDS011;2873;50.966;7.210;2023-02-17T00:34:51;21.70;;;13.02;;
5696;SDS011;2873;50.966;7.210;2023-02-17T00:37:20;19.98;;;13.43;;
5696;SDS011;2873;50.966;7.210;2023-02-17T00:39:45;19.33;;;13.15;;
5696;SDS011;2873;50.966;7.210;2023-02-17T00:42:11;19.73;;;13.73;;
5696;SDS011;2873;50.966;7.210;2023-02-17T00:44:37;18.20;;;12.98;;
5696;SDS011;2873;50.966;7.210;2023-02-17T00:47:02;18.50;;;13.20;;
5696;SDS011;2873;50.966;7.210;2023-02-17T00:49:28;18.03;;;13.23;;
5696;SDS011;2873;50.966;7.210;2023-02-17T00:51:53;18.85;;;12.15;;
5696;SDS011;2873;50.966;7.210;2023-02-17T00:54:19;17.57;;;12.17;;
5696;SDS011;2873;50.966;7.210;2023-02-17T00:56:44;20.58;;;12.95;;
5696;SDS011;2873;50.966;7.210;2023-02-17T00:59:10;15.87;;;11.97;;
5696;SDS011;2873;50.966;7.210;2023-02-17T01:01:36;15.60;;;11.82;;
5696;SDS011;2873;50.966;7.210;2023-02-17T01:04:03;17.52;;;11.60;;
5696;SDS011;2873;50.966;7.210;2023-02-17T01:06:33;18.13;;;11.73;;
5696;SDS011;2873;50.966;7.210;2023-02-17T01:09:00;20.60;;;10.98;;
5696;SDS011;2873;50.966;7.210;2023-02-17T01:11:28;17.60;;;12.02;;
5696;SDS011;2873;50.966;7.210;2023-02-17T01:13:55;16.20;;;11.87;;
5696;SDS011;2873;50.966;7.210;2023-02-17T01:16:25;14.57;;;10.40;;
5696;SDS011;2873;50.966;7.210;2023-02-17T01:18:52;15.32;;;10.63;;
5696;SDS011;2873;50.966;7.210;2023-02-17T01:21:22;16.30;;;9.90;;
5696;SDS011;2873;50.966;7.210;2023-02-17T01:23:49;14.90;;;10.00;;
5696;SDS011;2873;50.966;7.210;2023-02-17T01:26:17;13.03;;;10.40;;
5696;SDS011;2873;50.966;7.210;2023-02-17T01:28:44;12.20;;;9.00;;
5696;SDS011;2873;50.966;7.210;2023-02-17T01:31:11;14.85;;;9.50;;
5696;SDS011;2873;50.966;7.210;2023-02-17T01:33:37;13.43;;;9.40;;
5696;SDS011;2873;50.966;7.210;2023-02-17T01:36:04;12.13;;;9.40;;
5696;SDS011;2873;50.966;7.210;2023-02-17T01:38:32;10.35;;;8.63;;
5696;SDS011;2873;50.966;7.210;2023-02-17T01:40:58;15.57;;;9.40;;
5696;SDS011;2873;50.966;7.210;2023-02-17T01:43:24;13.53;;;9.60;;
5696;SDS011;2873;50.966;7.210;2023-02-17T01:45:54;11.95;;;9.68;;
5696;SDS011;2873;50.966;7.210;2023-02-17T01:48:24;13.97;;;8.80;;
5696;SDS011;2873;50.966;7.210;2023-02-17T01:50:59;16.58;;;9.45;;
5696;SDS011;2873;50.966;7.210;2023-02-17T01:53:34;13.10;;;9.05;;
5696;SDS011;2873;50.966;7.210;2023-02-17T01:56:06;12.00;;;8.90;;
5696;SDS011;2873;50.966;7.210;2023-02-17T01:58:33;11.43;;;8.02;;
5696;SDS011;2873;50.966;7.210;2023-02-17T02:01:00;12.20;;;9.00;;
5696;SDS011;2873;50.966;7.210;2023-02-17T02:03:30;14.67;;;9.37;;
5696;SDS011;2873;50.966;7.210;2023-02-17T02:05:58;16.45;;;10.10;;
5696;SDS011;2873;50.966;7.210;2023-02-17T02:08:28;11.75;;;9.00;;
5696;SDS011;2873;50.966;7.210;2023-02-17T02:10:58;12.07;;;9.27;;
5696;SDS011;2873;50.966;7.210;2023-02-17T02:13:23;11.73;;;9.00;;
5696;SDS011;2873;50.966;7.210;2023-02-17T02:15:51;10.93;;;8.98;;
5696;SDS011;2873;50.966;7.210;2023-02-17T02:18:48;11.15;;;8.90;;
5696;SDS011;2873;50.966;7.210;2023-02-17T02:27:29;11.40;;;8.70;;
5696;SDS011;2873;50.966;7.210;2023-02-17T02:30:25;11.98;;;9.23;;
5696;SDS011;2873;50.966;7.210;2023-02-17T02:35:55;13.07;;;8.68;;
5696;SDS011;2873;50.966;7.210;2023-02-17T02:38:36;12.15;;;8.38;;
5696;SDS011;2873;50.966;7.210;2023-02-17T02:41:11;12.38;;;7.60;;
5696;SDS011;2873;50.966;7.210;2023-02-17T02:44:03;10.80;;;8.43;;
5696;SDS011;2873;50.966;7.210;2023-02-17T02:46:30;10.80;;;8.10;;
5696;SDS011;2873;50.966;7.210;2023-02-17T02:48:55;11.73;;;8.07;;
5696;SDS011;2873;50.966;7.210;2023-02-17T02:51:23;9.97;;;7.77;;
5696;SDS011;2873;50.966;7.210;2023-02-17T02:54:14;11.40;;;8.10;;
5696;SDS011;2873;50.966;7.210;2023-02-17T02:57:18;10.20;;;8.07;;
5696;SDS011;2873;50.966;7.210;2023-02-17T02:59:59;9.17;;;6.60;;
5696;SDS011;2873;50.966;7.210;2023-02-17T03:02:44;7.85;;;6.88;;
5696;SDS011;2873;50.966;7.210;2023-02-17T03:05:23;9.98;;;6.85;;
5696;SDS011;2873;50.966;7.210;2023-02-17T03:08:06;7.82;;;6.75;;
5696;SDS011;2873;50.966;7.210;2023-02-17T03:10:48;8.80;;;7.55;;
5696;SDS011;2873;50.966;7.210;2023-02-17T03:13:15;10.20;;;7.03;;
5696;SDS011;2873;50.966;7.210;2023-02-17T03:15:42;10.25;;;7.43;;
5696;SDS011;2873;50.966;7.210;2023-02-17T03:18:08;8.77;;;6.95;;
5696;SDS011;2873;50.966;7.210;2023-02-17T03:20:37;9.03;;;7.50;;
5696;SDS011;2873;50.966;7.210;2023-02-17T03:23:07;10.98;;;7.30;;
5696;SDS011;2873;50.966;7.210;2023-02-17T03:25:33;9.83;;;7.60;;
5696;SDS011;2873;50.966;7.210;2023-02-17T03:27:59;7.83;;;7.03;;
5696;SDS011;2873;50.966;7.210;2023-02-17T03:30:25;7.70;;;6.80;;
5696;SDS011;2873;50.966;7.210;2023-02-17T03:32:51;7.78;;;6.97;;
5696;SDS011;2873;50.966;7.210;2023-02-17T03:35:17;10.57;;;7.50;;
5696;SDS011;2873;50.966;7.210;2023-02-17T03:37:42;9.05;;;7.47;;
5696;SDS011;2873;50.966;7.210;2023-02-17T03:40:09;10.15;;;7.07;;
5696;SDS011;2873;50.966;7.210;2023-02-17T03:42:34;9.50;;;7.10;;
5696;SDS011;2873;50.966;7.210;2023-02-17T03:45:00;7.70;;;6.47;;
5696;SDS011;2873;50.966;7.210;2023-02-17T03:47:26;9.70;;;7.22;;
5696;SDS011;2873;50.966;7.210;2023-02-17T03:49:51;9.60;;;7.10;;
5696;SDS011;2873;50.966;7.210;2023-02-17T03:52:17;11.63;;;6.83;;
5696;SDS011;2873;50.966;7.210;2023-02-17T03:54:43;8.68;;;7.00;;
5696;SDS011;2873;50.966;7.210;2023-02-17T03:57:08;8.73;;;7.20;;
5696;SDS011;2873;50.966;7.210;2023-02-17T03:59:34;12.70;;;7.40;;
5696;SDS011;2873;50.966;7.210;2023-02-17T04:02:00;7.57;;;6.78;;
5696;SDS011;2873;50.966;7.210;2023-02-17T04:04:26;8.83;;;6.67;;
5696;SDS011;2873;50.966;7.210;2023-02-17T04:06:51;9.77;;;7.68;;
5696;SDS011;2873;50.966;7.210;2023-02-17T04:09:17;8.43;;;7.00;;
5696;SDS011;2873;50.966;7.210;2023-02-17T04:11:42;7.30;;;6.25;;
5696;SDS011;2873;50.966;7.210;2023-02-17T04:14:08;7.43;;;6.63;;
5696;SDS011;2873;50.966;7.210;2023-02-17T04:16:34;8.13;;;6.23;;
5696;SDS011;2873;50.966;7.210;2023-02-17T04:18:59;8.25;;;6.70;;
5696;SDS011;2873;50.966;7.210;2023-02-17T04:21:25;8.32;;;6.38;;
5696;SDS011;2873;50.966;7.210;2023-02-17T04:23:50;6.97;;;6.28;;
5696;SDS011;2873;50.966;7.210;2023-02-17T04:26:19;9.52;;;6.45;;
5696;SDS011;2873;50.966;7.210;2023-02-17T04:28:44;8.03;;;6.50;;
5696;SDS011;2873;50.966;7.210;2023-02-17T04:31:10;8.53;;;6.63;;
5696;SDS011;2873;50.966;7.210;2023-02-17T04:33:35;8.15;;;6.63;;
5696;SDS011;2873;50.966;7.210;2023-02-17T04:36:01;7.25;;;6.32;;
5696;SDS011;2873;50.966;7.210;2023-02-17T04:38:28;8.60;;;6.50;;
5696;SDS011;2873;50.966;7.210;2023-02-17T04:40:55;7.28;;;6.05;;
5696;SDS011;2873;50.966;7.210;2023-02-17T04:43:22;8.40;;;6.70;;
5696;SDS011;2873;50.966;7.210;2023-02-17T04:45:48;10.98;;;6.90;;
5696;SDS011;2873;50.966;7.210;2023-02-17T04:48:14;7.53;;;6.30;;
5696;SDS011;2873;50.966;7.210;2023-02-17T04:50:40;8.00;;;6.30;;
5696;SDS011;2873;50.966;7.210;2023-02-17T04:53:05;8.40;;;6.38;;
5696;SDS011;2873;50.966;7.210;2023-02-17T04:55:32;7.55;;;6.38;;
5696;SDS011;2873;50.966;7.210;2023-02-17T04:57:57;7.67;;;6.73;;
5696;SDS011;2873;50.966;7.210;2023-02-17T05:00:23;9.88;;;6.78;;
5696;SDS011;2873;50.966;7.210;2023-02-17T05:02:49;7.73;;;6.53;;
5696;SDS011;2873;50.966;7.210;2023-02-17T05:05:14;8.10;;;6.35;;
5696;SDS011;2873;50.966;7.210;2023-02-17T05:07:42;7.43;;;6.38;;
5696;SDS011;2873;50.966;7.210;2023-02-17T05:10:09;8.00;;;6.32;;
5696;SDS011;2873;50.966;7.210;2023-02-17T05:12:34;8.03;;;6.47;;
5696;SDS011;2873;50.966;7.210;2023-02-17T05:15:00;6.30;;;5.70;;
5696;SDS011;2873;50.966;7.210;2023-02-17T05:17:26;9.40;;;6.90;;
5696;SDS011;2873;50.966;7.210;2023-02-17T05:19:51;8.90;;;6.80;;
5696;SDS011;2873;50.966;7.210;2023-02-17T05:22:17;6.60;;;5.90;;
5696;SDS011;2873;50.966;7.210;2023-02-17T05:24:42;7.50;;;5.87;;
5696;SDS011;2873;50.966;7.210;2023-02-17T05:27:08;6.45;;;5.72;;
5696;SDS011;2873;50.966;7.210;2023-02-17T05:29:33;7.23;;;5.80;;
5696;SDS011;2873;50.966;7.210;2023-02-17T05:31:59;6.90;;;6.20;;
5696;SDS011;2873;50.966;7.210;2023-02-17T05:34:25;9.45;;;5.93;;
5696;SDS011;2873;50.966;7.210;2023-02-17T05:36:50;6.20;;;5.60;;
5696;SDS011;2873;50.966;7.210;2023-02-17T05:39:16;7.35;;;5.80;;
5696;SDS011;2873;50.966;7.210;2023-02-17T05:41:41;7.70;;;5.77;;
5696;SDS011;2873;50.966;7.210;2023-02-17T05:44:07;6.53;;;5.87;;
5696;SDS011;2873;50.966;7.210;2023-02-17T05:46:32;7.15;;;5.30;;
5696;SDS011;2873;50.966;7.210;2023-02-17T05:48:58;7.50;;;5.63;;
5696;SDS011;2873;50.966;7.210;2023-02-17T05:51:23;6.77;;;6.07;;
5696;SDS011;2873;50.966;7.210;2023-02-17T05:53:49;6.53;;;5.95;;
5696;SDS011;2873;50.966;7.210;2023-02-17T05:56:14;9.83;;;6.20;;
5696;SDS011;2873;50.966;7.210;2023-02-17T05:58:40;5.50;;;5.00;;
5696;SDS011;2873;50.966;7.210;2023-02-17T06:01:06;7.00;;;5.32;;
5696;SDS011;2873;50.966;7.210;2023-02-17T06:03:35;5.63;;;5.13;;
5696;SDS011;2873;50.966;7.210;2023-02-17T06:06:01;5.90;;;5.33;;
5696;SDS011;2873;50.966;7.210;2023-02-17T06:08:27;7.30;;;5.20;;
5696;SDS011;2873;50.966;7.210;2023-02-17T06:10:54;6.30;;;5.50;;
5696;SDS011;2873;50.966;7.210;2023-02-17T06:13:19;6.60;;;5.90;;
5696;SDS011;2873;50.966;7.210;2023-02-17T06:15:45;7.03;;;4.97;;
5696;SDS011;2873;50.966;7.210;2023-02-17T06:18:12;5.75;;;4.60;;
5696;SDS011;2873;50.966;7.210;2023-02-17T06:20:38;6.05;;;5.55;;
5696;SDS011;2873;50.966;7.210;2023-02-17T06:23:04;6.07;;;5.28;;
5696;SDS011;2873;50.966;7.210;2023-02-17T06:25:29;5.93;;;5.43;;
5696;SDS011;2873;50.966;7.210;2023-02-17T06:27:55;5.90;;;5.15;;
5696;SDS011;2873;50.966;7.210;2023-02-17T06:30:21;6.20;;;5.00;;
5696;SDS011;2873;50.966;7.210;2023-02-17T06:32:48;6.03;;;4.90;;
5696;SDS011;2873;50.966;7.210;2023-02-17T06:35:13;7.43;;;5.60;;
5696;SDS011;2873;50.966;7.210;2023-02-17T06:37:39;5.77;;;5.20;;
5696;SDS011;2873;50.966;7.210;2023-02-17T06:40:05;8.38;;;5.43;;
5696;SDS011;2873;50.966;7.210;2023-02-17T06:42:31;6.20;;;5.60;;
5696;SDS011;2873;50.966;7.210;2023-02-17T06:44:56;5.40;;;4.80;;
5696;SDS011;2873;50.966;7.210;2023-02-17T06:47:22;6.13;;;4.72;;
5696;SDS011;2873;50.966;7.210;2023-02-17T06:49:48;5.57;;;5.07;;
5696;SDS011;2873;50.966;7.210;2023-02-17T06:52:13;5.17;;;4.67;;
5696;SDS011;2873;50.966;7.210;2023-02-17T06:54:39;5.33;;;4.30;;
5696;SDS011;2873;50.966;7.210;2023-02-17T06:57:04;5.22;;;4.65;;
5696;SDS011;2873;50.966;7.210;2023-02-17T06:59:30;7.13;;;4.50;;
5696;SDS011;2873;50.966;7.210;2023-02-17T07:01:57;5.20;;;4.70;;
5696;SDS011;2873;50.966;7.210;2023-02-17T07:04:22;5.60;;;4.80;;
5696;SDS011;2873;50.966;7.210;2023-02-17T07:06:48;5.47;;;4.90;;
5696;SDS011;2873;50.966;7.210;2023-02-17T07:09:14;8.00;;;5.30;;
5696;SDS011;2873;50.966;7.210;2023-02-17T07:11:39;5.13;;;4.63;;
5696;SDS011;2873;50.966;7.210;2023-02-17T07:14:06;5.65;;;5.07;;
5696;SDS011;2873;50.966;7.210;2023-02-17T07:16:31;5.70;;;5.00;;
5696;SDS011;2873;50.966;7.210;2023-02-17T07:18:57;5.30;;;4.90;;
5696;SDS011;2873;50.966;7.210;2023-02-17T07:21:23;5.50;;;5.00;;
5696;SDS011;2873;50.966;7.210;2023-02-17T07:23:48;5.87;;;4.50;;
5696;SDS011;2873;50.966;7.210;2023-02-17T07:26:14;6.70;;;5.03;;
5696;SDS011;2873;50.966;7.210;2023-02-17T07:28:40;4.80;;;4.40;;
5696;SDS011;2873;50.966;7.210;2023-02-17T07:31:10;5.05;;;4.63;;
5696;SDS011;2873;50.966;7.210;2023-02-17T07:33:37;5.60;;;5.10;;
5696;SDS011;2873;50.966;7.210;2023-02-17T07:36:11;6.80;;;4.60;;
5696;SDS011;2873;50.966;7.210;2023-02-17T07:38:37;4.93;;;4.53;;
5696;SDS011;2873;50.966;7.210;2023-02-17T07:41:07;5.90;;;5.00;;
5696;SDS011;2873;50.966;7.210;2023-02-17T07:43:35;6.45;;;5.32;;
5696;SDS011;2873;50.966;7.210;2023-02-17T07:46:00;5.80;;;5.20;;
5696;SDS011;2873;50.966;7.210;2023-02-17T07:48:26;5.77;;;5.20;;
5696;SDS011;2873;50.966;7.210;2023-02-17T07:50:52;5.40;;;4.82;;
5696;SDS011;2873;50.966;7.210;2023-02-17T07:53:18;7.38;;;5.70;;
5696;SDS011;2873;50.966;7.210;2023-02-17T07:55:43;6.72;;;5.30;;
5696;SDS011;2873;50.966;7.210;2023-02-17T07:58:09;6.50;;;5.00;;
5696;SDS011;2873;50.966;7.210;2023-02-17T08:00:34;4.80;;;4.40;;
5696;SDS011;2873;50.966;7.210;2023-02-17T08:03:00;6.50;;;5.23;;
5696;SDS011;2873;50.966;7.210;2023-02-17T08:05:25;5.80;;;5.10;;
5696;SDS011;2873;50.966;7.210;2023-02-17T08:07:51;7.05;;;5.03;;
5696;SDS011;2873;50.966;7.210;2023-02-17T08:10:37;5.50;;;4.90;;
5696;SDS011;2873;50.966;7.210;2023-02-17T08:13:22;6.05;;;5.45;;
5696;SDS011;2873;50.966;7.210;2023-02-17T08:15:49;6.20;;;5.03;;
5696;SDS011;2873;50.966;7.210;2023-02-17T08:18:14;5.40;;;4.90;;
5696;SDS011;2873;50.966;7.210;2023-02-17T08:20:40;6.15;;;5.10;;
5696;SDS011;2873;50.966;7.210;2023-02-17T08:23:06;5.35;;;4.85;;
5696;SDS011;2873;50.966;7.210;2023-02-17T08:25:35;7.38;;;4.93;;
5696;SDS011;2873;50.966;7.210;2023-02-17T08:28:01;5.30;;;4.27;;
5696;SDS011;2873;50.966;7.210;2023-02-17T08:30:28;8.18;;;5.10;;
5696;SDS011;2873;50.966;7.210;2023-02-17T08:32:55;5.88;;;4.90;;
5696;SDS011;2873;50.966;7.210;2023-02-17T08:35:20;7.05;;;4.85;;
5696;SDS011;2873;50.966;7.210;2023-02-17T08:37:49;5.30;;;4.80;;
5696;SDS011;2873;50.966;7.210;2023-02-17T08:40:16;6.13;;;5.28;;
5696;SDS011;2873;50.966;7.210;2023-02-17T08:42:42;5.15;;;4.65;;
5696;SDS011;2873;50.966;7.210;2023-02-17T08:45:08;6.90;;;5.10;;
5696;SDS011;2873;50.966;7.210;2023-02-17T08:47:34;7.10;;;4.70;;
5696;SDS011;2873;50.966;7.210;2023-02-17T08:50:00;6.20;;;5.03;;
5696;SDS011;2873;50.966;7.210;2023-02-17T08:52:28;5.38;;;4.90;;
5696;SDS011;2873;50.966;7.210;2023-02-17T08:54:53;6.00;;;5.40;;
5696;SDS011;2873;50.966;7.210;2023-02-17T08:57:19;8.43;;;5.13;;
5696;SDS011;2873;50.966;7.210;2023-02-17T08:59:46;5.30;;;4.80;;
5696;SDS011;2873;50.966;7.210;2023-02-17T09:02:13;4.70;;;4.30;;
5696;SDS011;2873;50.966;7.210;2023-02-17T09:04:39;6.90;;;5.00;;
5696;SDS011;2873;50.966;7.210;2023-02-17T09:07:07;5.78;;;4.60;;
5696;SDS011;2873;50.966;7.210;2023-02-17T09:09:35;5.38;;;4.88;;
5696;SDS011;2873;50.966;7.210;2023-02-17T09:12:00;6.10;;;5.20;;
5696;SDS011;2873;50.966;7.210;2023-02-17T09:14:26;6.28;;;5.13;;
5696;SDS011;2873;50.966;7.210;2023-02-17T09:16:52;5.40;;;4.90;;
5696;SDS011;2873;50.966;7.210;2023-02-17T09:19:19;5.30;;;4.80;;
5696;SDS011;2873;50.966;7.210;2023-02-17T09:21:45;5.25;;;4.20;;
5696;SDS011;2873;50.966;7.210;2023-02-17T09:24:10;6.23;;;4.43;;
5696;SDS011;2873;50.966;7.210;2023-02-17T09:26:36;5.10;;;4.60;;
5696;SDS011;2873;50.966;7.210;2023-02-17T09:29:02;5.23;;;4.47;;
5696;SDS011;2873;50.966;7.210;2023-02-17T09:31:29;6.53;;;4.40;;
5696;SDS011;2873;50.966;7.210;2023-02-17T09:33:56;4.97;;;4.30;;
5696;SDS011;2873;50.966;7.210;2023-02-17T09:36:32;5.53;;;4.40;;
5696;SDS011;2873;50.966;7.210;2023-02-17T09:39:02;5.97;;;4.70;;
5696;SDS011;2873;50.966;7.210;2023-02-17T09:43:59;4.80;;;4.30;;
5696;SDS011;2873;50.966;7.210;2023-02-17T09:46:44;4.00;;;3.70;;
5696;SDS011;2873;50.966;7.210;2023-02-17T09:49:18;4.03;;;3.63;;
5696;SDS011;2873;50.966;7.210;2023-02-17T09:52:24;4.00;;;3.70;;
5696;SDS011;2873;50.966;7.210;2023-02-17T09:55:14;4.63;;;3.80;;
5696;SDS011;2873;50.966;7.210;2023-02-17T10:05:45;4.15;;;3.70;;
5696;SDS011;2873;50.966;7.210;2023-02-17T10:08:23;3.80;;;3.50;;
5696;SDS011;2873;50.966;7.210;2023-02-17T10:13:28;4.40;;;3.40;;
5696;SDS011;2873;50.966;7.210;2023-02-17T10:15:57;3.97;;;3.38;;
5696;SDS011;2873;50.966;7.210;2023-02-17T10:18:39;3.40;;;3.10;;
5696;SDS011;2873;50.966;7.210;2023-02-17T10:21:16;4.50;;;3.22;;
5696;SDS011;2873;50.966;7.210;2023-02-17T10:23:47;3.20;;;3.00;;
5696;SDS011;2873;50.966;7.210;2023-02-17T10:28:52;2.50;;;2.30;;
5696;SDS011;2873;50.966;7.210;2023-02-17T10:37:48;6.45;;;2.22;;
5696;SDS011;2873;50.966;7.210;2023-02-17T10:39:48;2.70;;;2.40;;
5696;SDS011;2873;50.966;7.210;2023-02-17T10:42:24;2.35;;;2.15;;
5696;SDS011;2873;50.966;7.210;2023-02-17T10:44:50;2.43;;;2.10;;
5696;SDS011;2873;50.966;7.210;2023-02-17T10:47:18;4.07;;;2.20;;
5696;SDS011;2873;50.966;7.210;2023-02-17T10:49:47;4.65;;;2.05;;
5696;SDS011;2873;50.966;7.210;2023-02-17T10:52:18;2.20;;;2.10;;
5696;SDS011;2873;50.966;7.210;2023-02-17T10:54:51;3.05;;;2.38;;
5696;SDS011;2873;50.966;7.210;2023-02-17T10:57:23;3.30;;;2.10;;
5696;SDS011;2873;50.966;7.210;2023-02-17T10:59:56;2.78;;;1.90;;
5696;SDS011;2873;50.966;7.210;2023-02-17T11:05:03;2.80;;;1.90;;
5696;SDS011;2873;50.966;7.210;2023-02-17T11:07:32;2.72;;;2.00;;
5696;SDS011;2873;50.966;7.210;2023-02-17T11:10:00;1.90;;;1.70;;
5696;SDS011;2873;50.966;7.210;2023-02-17T11:12:32;1.52;;;1.42;;
5696;SDS011;2873;50.966;7.210;2023-02-17T11:15:03;1.95;;;1.80;;
5696;SDS011;2873;50.966;7.210;2023-02-17T11:17:41;1.90;;;1.80;;
5696;SDS011;2873;50.966;7.210;2023-02-17T11:27:55;1.70;;;1.60;;
5696;SDS011;2873;50.966;7.210;2023-02-17T11:30:23;2.00;;;1.70;;
5696;SDS011;2873;50.966;7.210;2023-02-17T11:32:50;3.53;;;1.70;;
5696;SDS011;2873;50.966;7.210;2023-02-17T11:35:20;1.67;;;1.58;;
5696;SDS011;2873;50.966;7.210;2023-02-17T11:38:02;1.50;;;1.23;;
5696;SDS011;2873;50.966;7.210;2023-02-17T11:40:34;2.35;;;1.63;;
5696;SDS011;2873;50.966;7.210;2023-02-17T11:43:00;1.70;;;1.60;;
5696;SDS011;2873;50.966;7.210;2023-02-17T11:45:31;2.28;;;2.08;;
5696;SDS011;2873;50.966;7.210;2023-02-17T11:51:13;2.47;;;1.65;;
5696;SDS011;2873;50.966;7.210;2023-02-17T11:56:38;2.20;;;1.60;;
5696;SDS011;2873;50.966;7.210;2023-02-17T12:04:46;1.48;;;1.38;;
5696;SDS011;2873;50.966;7.210;2023-02-17T12:12:49;1.90;;;1.80;;
5696;SDS011;2873;50.966;7.210;2023-02-17T12:29:08;1.75;;;1.65;;
5696;SDS011;2873;50.966;7.210;2023-02-17T12:31:54;6.65;;;1.60;;
5696;SDS011;2873;50.966;7.210;2023-02-17T12:34:40;1.42;;;1.33;;
5696;SDS011;2873;50.966;7.210;2023-02-17T12:37:13;2.22;;;1.75;;
5696;SDS011;2873;50.966;7.210;2023-02-17T12:39:55;7.07;;;1.65;;
5696;SDS011;2873;50.966;7.210;2023-02-17T12:42:37;5.07;;;1.98;;
5696;SDS011;2873;50.966;7.210;2023-02-17T12:45:15;4.45;;;1.65;;
5696;SDS011;2873;50.966;7.210;2023-02-17T12:47:52;2.00;;;1.60;;
5696;SDS011;2873;50.966;7.210;2023-02-17T12:50:26;4.07;;;1.40;;
5696;SDS011;2873;50.966;7.210;2023-02-17T12:53:01;1.70;;;1.60;;
5696;SDS011;2873;50.966;7.210;2023-02-17T12:55:35;2.45;;;1.75;;
5696;SDS011;2873;50.966;7.210;2023-02-17T12:58:13;3.23;;;1.60;;
5696;SDS011;2873;50.966;7.210;2023-02-17T13:00:49;1.92;;;1.77;;
5696;SDS011;2873;50.966;7.210;2023-02-17T13:03:18;1.80;;;1.70;;
5696;SDS011;2873;50.966;7.210;2023-02-17T13:06:01;1.70;;;1.60;;
5696;SDS011;2873;50.966;7.210;2023-02-17T13:08:37;2.90;;;1.40;;
5696;SDS011;2873;50.966;7.210;2023-02-17T13:11:09;2.63;;;1.80;;
5696;SDS011;2873;50.966;7.210;2023-02-17T13:13:36;2.15;;;1.95;;
5696;SDS011;2873;50.966;7.210;2023-02-17T13:16:03;3.72;;;1.70;;
5696;SDS011;2873;50.966;7.210;2023-02-17T13:18:37;3.40;;;1.90;;
5696;SDS011;2873;50.966;7.210;2023-02-17T13:24:02;6.70;;;2.30;;
5696;SDS011;2873;50.966;7.210;2023-02-17T13:26:29;3.67;;;1.50;;
5696;SDS011;2873;50.966;7.210;2023-02-17T13:29:08;3.65;;;1.70;;
5696;SDS011;2873;50.966;7.210;2023-02-17T13:31:51;9.43;;;2.38;;
5696;SDS011;2873;50.966;7.210;2023-02-17T13:37:42;4.53;;;1.38;;
5696;SDS011;2873;50.966;7.210;2023-02-17T13:39:59;17.55;;;2.83;;
5696;SDS011;2873;50.966;7.210;2023-02-17T13:42:39;11.52;;;2.20;;
5696;SDS011;2873;50.966;7.210;2023-02-17T13:45:20;8.25;;;2.20;;
5696;SDS011;2873;50.966;7.210;2023-02-17T13:47:59;11.07;;;2.35;;
5696;SDS011;2873;50.966;7.210;2023-02-17T13:50:37;6.57;;;2.28;;
5696;SDS011;2873;50.966;7.210;2023-02-17T13:55:52;18.38;;;1.90;;
5696;SDS011;2873;50.966;7.210;2023-02-17T13:58:23;22.90;;;2.58;;
5696;SDS011;2873;50.966;7.210;2023-02-17T14:01:11;10.15;;;2.25;;
5696;SDS011;2873;50.966;7.210;2023-02-17T14:03:41;8.35;;;2.63;;
5696;SDS011;2873;50.966;7.210;2023-02-17T14:06:11;6.90;;;2.40;;
5696;SDS011;2873;50.966;7.210;2023-02-17T14:08:46;11.10;;;2.17;;
5696;SDS011;2873;50.966;7.210;2023-02-17T14:11:16;4.45;;;2.00;;
5696;SDS011;2873;50.966;7.210;2023-02-17T14:13:49;9.93;;;2.33;;
5696;SDS011;2873;50.966;7.210;2023-02-17T14:18:48;10.38;;;2.40;;
5696;SDS011;2873;50.966;7.210;2023-02-17T14:21:23;16.80;;;3.07;;
5696;SDS011;2873;50.966;7.210;2023-02-17T14:23:51;8.55;;;2.63;;
5696;SDS011;2873;50.966;7.210;2023-02-17T14:29:05;6.45;;;2.55;;
5696;SDS011;2873;50.966;7.210;2023-02-17T14:31:39;4.03;;;2.58;;
5696;SDS011;2873;50.966;7.210;2023-02-17T14:34:05;6.95;;;2.50;;
5696;SDS011;2873;50.966;7.210;2023-02-17T14:36:37;7.85;;;2.78;;
5696;SDS011;2873;50.966;7.210;2023-02-17T14:39:04;4.32;;;2.47;;
5696;SDS011;2873;50.966;7.210;2023-02-17T14:41:32;7.35;;;2.33;;
5696;SDS011;2873;50.966;7.210;2023-02-17T14:43:58;6.38;;;2.58;;
5696;SDS011;2873;50.966;7.210;2023-02-17T14:46:24;8.02;;;2.70;;
5696;SDS011;2873;50.966;7.210;2023-02-17T14:48:51;6.60;;;2.50;;
5696;SDS011;2873;50.966;7.210;2023-02-17T14:51:19;7.13;;;2.60;;
5696;SDS011;2873;50.966;7.210;2023-02-17T14:53:46;3.85;;;2.30;;
5696;SDS011;2873;50.966;7.210;2023-02-17T14:56:18;3.40;;;2.50;;
5696;SDS011;2873;50.966;7.210;2023-02-17T14:58:59;2.80;;;2.20;;
5696;SDS011;2873;50.966;7.210;2023-02-17T15:01:24;7.60;;;2.42;;
5696;SDS011;2873;50.966;7.210;2023-02-17T15:03:51;4.20;;;2.00;;
5696;SDS011;2873;50.966;7.210;2023-02-17T15:06:28;7.50;;;3.08;;
5696;SDS011;2873;50.966;7.210;2023-02-17T15:09:02;5.40;;;2.30;;
5696;SDS011;2873;50.966;7.210;2023-02-17T15:11:33;5.90;;;2.50;;
5696;SDS011;2873;50.966;7.210;2023-02-17T15:14:00;7.60;;;2.40;;
5696;SDS011;2873;50.966;7.210;2023-02-17T15:16:27;8.30;;;2.75;;
5696;SDS011;2873;50.966;7.210;2023-02-17T15:18:52;4.70;;;2.90;;
5696;SDS011;2873;50.966;7.210;2023-02-17T15:21:26;10.05;;;2.63;;
5696;SDS011;2873;50.966;7.210;2023-02-17T15:23:54;7.00;;;2.30;;
5696;SDS011;2873;50.966;7.210;2023-02-17T15:26:21;4.40;;;2.90;;
5696;SDS011;2873;50.966;7.210;2023-02-17T15:28:46;2.50;;;2.30;;
5696;SDS011;2873;50.966;7.210;2023-02-17T15:31:12;5.55;;;2.72;;
5696;SDS011;2873;50.966;7.210;2023-02-17T15:33:44;5.30;;;2.60;;
5696;SDS011;2873;50.966;7.210;2023-02-17T15:36:20;2.80;;;2.60;;
5696;SDS011;2873;50.966;7.210;2023-02-17T15:38:45;3.40;;;3.10;;
5696;SDS011;2873;50.966;7.210;2023-02-17T15:41:15;3.30;;;3.10;;
5696;SDS011;2873;50.966;7.210;2023-02-17T15:43:44;3.47;;;3.13;;
5696;SDS011;2873;50.966;7.210;2023-02-17T15:46:14;4.78;;;3.67;;
5696;SDS011;2873;50.966;7.210;2023-02-17T15:48:43;4.28;;;3.70;;
5696;SDS011;2873;50.966;7.210;2023-02-17T15:51:10;4.03;;;3.63;;
5696;SDS011;2873;50.966;7.210;2023-02-17T15:53:39;5.20;;;3.63;;
5696;SDS011;2873;50.966;7.210;2023-02-17T15:56:12;5.65;;;3.90;;
5696;SDS011;2873;50.966;7.210;2023-02-17T15:58:41;4.43;;;3.60;;
5696;SDS011;2873;50.966;7.210;2023-02-17T16:01:20;4.90;;;3.15;;
5696;SDS011;2873;50.966;7.210;2023-02-17T16:03:52;5.90;;;4.10;;
5696;SDS011;2873;50.966;7.210;2023-02-17T16:06:17;6.43;;;4.30;;
5696;SDS011;2873;50.966;7.210;2023-02-17T16:08:43;3.30;;;3.10;;
5696;SDS011;2873;50.966;7.210;2023-02-17T16:11:12;8.98;;;4.60;;
5696;SDS011;2873;50.966;7.210;2023-02-17T16:13:39;4.35;;;3.30;;
5696;SDS011;2873;50.966;7.210;2023-02-17T16:16:08;2.20;;;2.10;;
5696;SDS011;2873;50.966;7.210;2023-02-17T16:18:46;3.30;;;2.25;;
5696;SDS011;2873;50.966;7.210;2023-02-17T16:21:12;3.03;;;2.80;;
5696;SDS011;2873;50.966;7.210;2023-02-17T16:23:39;3.28;;;2.63;;
5696;SDS011;2873;50.966;7.210;2023-02-17T16:26:22;5.67;;;2.83;;
5696;SDS011;2873;50.966;7.210;2023-02-17T16:28:53;4.13;;;2.70;;
5696;SDS011;2873;50.966;7.210;2023-02-17T16:31:21;2.83;;;2.63;;
5696;SDS011;2873;50.966;7.210;2023-02-17T16:33:47;4.38;;;3.50;;
5696;SDS011;2873;50.966;7.210;2023-02-17T16:36:13;4.97;;;3.10;;
5696;SDS011;2873;50.966;7.210;2023-02-17T16:38:40;3.55;;;3.17;;
5696;SDS011;2873;50.966;7.210;2023-02-17T16:41:06;4.53;;;3.40;;
5696;SDS011;2873;50.966;7.210;2023-02-17T16:43:36;3.90;;;3.60;;
5696;SDS011;2873;50.966;7.210;2023-02-17T16:46:02;4.60;;;2.83;;
5696;SDS011;2873;50.966;7.210;2023-02-17T16:48:30;4.60;;;3.20;;